Terminal Aerodrome Forecast
Issued by NWS

Home | Current Version | Previous Version | Text Only | Print | Product List | Glossary On
Versions: 1 2 3 4 5 6 7 8 9 10 11 12 13 14 15 16 17 18 19 20 21 22 23
000
FTUS43 KAPX 181720
TAFMBL
TAF
KMBL 181720Z 1818/1918 21008KT 1SM BR OVC005
      TEMPO 1818/1820 1/2SM FG OVC003
     FM182000 20010G20KT 2SM BR BKN008
     FM182100 20011G20KT P6SM SCT008
     FM190600 22007KT 4SM BR SCT015
     FM190900 22006KT 1 1/2SM BR SCT015
     FM191600 20005KT 3SM BR SCT015=

USA.gov is the U.S. government's official web portal to all federal, state and local government web resources and services.